sensor_id;sensor_type;location;lat;lon;timestamp;pressure;altitude;pressure_sealevel;temperature;humidity
69221;BME280;56331;51.992;20.910;2022-09-12T00:01:23;99713.38;;;23.47;44.96
69221;BME280;56331;51.992;20.910;2022-09-12T00:03:56;99726.68;;;23.48;44.97
69221;BME280;56331;51.992;20.910;2022-09-12T00:06:26;99721.71;;;23.47;44.98
69221;BME280;56331;51.992;20.910;2022-09-12T00:08:54;99718.34;;;23.48;44.97
69221;BME280;56331;51.992;20.910;2022-09-12T00:11:21;99721.71;;;23.47;45.00
69221;BME280;56331;51.992;20.910;2022-09-12T00:13:48;99716.50;;;23.46;45.07
69221;BME280;56331;51.992;20.910;2022-09-12T00:16:20;99722.30;;;23.47;45.04
69221;BME280;56331;51.992;20.910;2022-09-12T00:18:47;99721.48;;;23.46;45.09
69221;BME280;56331;51.992;20.910;2022-09-12T00:21:15;99721.27;;;23.45;45.12
69221;BME280;56331;51.992;20.910;2022-09-12T00:23:42;99720.32;;;23.47;45.16
69221;BME280;56331;51.992;20.910;2022-09-12T00:26:10;99720.91;;;23.47;45.21
69221;BME280;56331;51.992;20.910;2022-09-12T00:28:38;99725.64;;;23.46;45.22
69221;BME280;56331;51.992;20.910;2022-09-12T00:31:08;99725.08;;;23.47;45.25
69221;BME280;56331;51.992;20.910;2022-09-12T00:33:35;99730.05;;;23.47;45.24
69221;BME280;56331;51.992;20.910;2022-09-12T00:36:14;99718.05;;;23.43;45.30
69221;BME280;56331;51.992;20.910;2022-09-12T00:38:42;99727.27;;;23.47;45.32
69221;BME280;56331;51.992;20.910;2022-09-12T00:41:18;99721.48;;;23.46;45.35
69221;BME280;56331;51.992;20.910;2022-09-12T00:46:34;99717.30;;;23.46;45.39
69221;BME280;56331;51.992;20.910;2022-09-12T00:49:35;99723.84;;;23.44;45.47
69221;BME280;56331;51.992;20.910;2022-09-12T00:52:07;99723.25;;;23.45;45.47
69221;BME280;56331;51.992;20.910;2022-09-12T00:54:38;99717.69;;;23.45;45.49
69221;BME280;56331;51.992;20.910;2022-09-12T00:57:07;99720.82;;;23.43;45.51
69221;BME280;56331;51.992;20.910;2022-09-12T00:59:41;99724.64;;;23.45;45.53
69221;BME280;56331;51.992;20.910;2022-09-12T01:02:23;99723.84;;;23.44;45.56
69221;BME280;56331;51.992;20.910;2022-09-12T01:04:50;99718.48;;;23.45;45.56
69221;BME280;56331;51.992;20.910;2022-09-12T01:07:18;99719.67;;;23.44;45.62
69221;BME280;56331;51.992;20.910;2022-09-12T01:09:45;99722.66;;;23.45;45.58
69221;BME280;56331;51.992;20.910;2022-09-12T01:12:13;99717.48;;;23.44;45.60
69221;BME280;56331;51.992;20.910;2022-09-12T01:14:40;99719.87;;;23.45;45.56
69221;BME280;56331;51.992;20.910;2022-09-12T01:17:12;99722.86;;;23.46;45.57
69221;BME280;56331;51.992;20.910;2022-09-12T01:19:52;99726.83;;;23.45;45.56
69221;BME280;56331;51.992;20.910;2022-09-12T01:33:13;99719.67;;;23.44;45.64
69221;BME280;56331;51.992;20.910;2022-09-12T01:35:41;99721.06;;;23.44;45.60
69221;BME280;56331;51.992;20.910;2022-09-12T01:38:09;99720.47;;;23.45;45.63
69221;BME280;56331;51.992;20.910;2022-09-12T01:40:45;99724.19;;;23.43;45.68
69221;BME280;56331;51.992;20.910;2022-09-12T01:51:15;99721.06;;;23.44;45.67
69221;BME280;56331;51.992;20.910;2022-09-12T01:53:51;99723.61;;;23.43;45.68
69221;BME280;56331;51.992;20.910;2022-09-12T01:56:24;99727.21;;;23.44;45.71
69221;BME280;56331;51.992;20.910;2022-09-12T01:59:07;99733.57;;;23.44;45.70
69221;BME280;56331;51.992;20.910;2022-09-12T02:01:36;99734.16;;;23.44;45.71
69221;BME280;56331;51.992;20.910;2022-09-12T02:04:08;99730.79;;;23.44;45.58
69221;BME280;56331;51.992;20.910;2022-09-12T02:06:39;99731.38;;;23.44;45.05
69221;BME280;56331;51.992;20.910;2022-09-12T02:11:42;99737.50;;;23.43;44.66
69221;BME280;56331;51.992;20.910;2022-09-12T02:14:19;99726.63;;;23.44;44.50
69221;BME280;56331;51.992;20.910;2022-09-12T02:19:31;99738.33;;;23.44;44.21
69221;BME280;56331;51.992;20.910;2022-09-12T02:22:11;99739.39;;;23.49;44.09
69221;BME280;56331;51.992;20.910;2022-09-12T02:24:41;99743.89;;;23.44;44.03
69221;BME280;56331;51.992;20.910;2022-09-12T02:27:18;99747.23;;;23.43;43.84
69221;BME280;56331;51.992;20.910;2022-09-12T02:29:43;99742.86;;;23.42;43.80
69221;BME280;56331;51.992;20.910;2022-09-12T02:32:32;99742.64;;;23.41;43.77
69221;BME280;56331;51.992;20.910;2022-09-12T02:35:14;99743.06;;;23.43;43.70
69221;BME280;56331;51.992;20.910;2022-09-12T02:40:13;99744.24;;;23.42;43.60
69221;BME280;56331;51.992;20.910;2022-09-12T02:42:40;99745.05;;;23.43;43.55
69221;BME280;56331;51.992;20.910;2022-09-12T02:45:08;99745.63;;;23.42;43.44
69221;BME280;56331;51.992;20.910;2022-09-12T02:47:49;99744.24;;;23.42;43.41
69221;BME280;56331;51.992;20.910;2022-09-12T02:50:16;99754.77;;;23.43;43.31
69221;BME280;56331;51.992;20.910;2022-09-12T02:52:43;99751.98;;;23.43;43.24
69221;BME280;56331;51.992;20.910;2022-09-12T02:55:11;99757.34;;;23.42;43.22
69221;BME280;56331;51.992;20.910;2022-09-12T02:57:38;99760.13;;;23.42;43.23
69221;BME280;56331;51.992;20.910;2022-09-12T03:00:06;99759.53;;;23.42;43.17
69221;BME280;56331;51.992;20.910;2022-09-12T03:08:27;99762.31;;;23.42;43.01
69221;BME280;56331;51.992;20.910;2022-09-12T03:13:33;99769.85;;;23.42;42.90
69221;BME280;56331;51.992;20.910;2022-09-12T03:16:04;99776.80;;;23.42;42.90
69221;BME280;56331;51.992;20.910;2022-09-12T03:18:47;99774.97;;;23.40;42.87
69221;BME280;56331;51.992;20.910;2022-09-12T03:26:44;99788.06;;;23.39;42.78
69221;BME280;56331;51.992;20.910;2022-09-12T03:29:10;99782.71;;;23.40;42.72
69221;BME280;56331;51.992;20.910;2022-09-12T03:31:50;99791.64;;;23.40;42.71
69221;BME280;56331;51.992;20.910;2022-09-12T03:34:18;99791.44;;;23.39;42.68
69221;BME280;56331;51.992;20.910;2022-09-12T03:36:45;99795.02;;;23.39;42.64
69221;BME280;56331;51.992;20.910;2022-09-12T03:39:12;99799.19;;;23.39;42.63
69221;BME280;56331;51.992;20.910;2022-09-12T03:41:38;99800.57;;;23.39;42.56
69221;BME280;56331;51.992;20.910;2022-09-12T03:44:05;99807.52;;;23.39;42.56
69221;BME280;56331;51.992;20.910;2022-09-12T03:46:31;99808.32;;;23.40;42.57
69221;BME280;56331;51.992;20.910;2022-09-12T03:48:58;99812.48;;;23.40;42.53
69221;BME280;56331;51.992;20.910;2022-09-12T03:51:25;99809.92;;;23.41;42.51
69221;BME280;56331;51.992;20.910;2022-09-12T03:53:51;99815.27;;;23.40;42.45
69221;BME280;56331;51.992;20.910;2022-09-12T03:56:17;99812.48;;;23.40;42.41
69221;BME280;56331;51.992;20.910;2022-09-12T03:58:44;99811.09;;;23.40;42.44
69221;BME280;56331;51.992;20.910;2022-09-12T04:01:14;99810.51;;;23.40;42.44
69221;BME280;56331;51.992;20.910;2022-09-12T04:03:42;99815.48;;;23.41;42.42
69221;BME280;56331;51.992;20.910;2022-09-12T04:06:10;99810.30;;;23.39;42.71
69221;BME280;56331;51.992;20.910;2022-09-12T04:08:37;99812.48;;;23.40;42.89
69221;BME280;56331;51.992;20.910;2022-09-12T04:13:35;99810.89;;;23.39;43.04
69221;BME280;56331;51.992;20.910;2022-09-12T04:16:03;99811.24;;;23.37;43.10
69221;BME280;56331;51.992;20.910;2022-09-12T04:18:29;99817.84;;;23.39;43.16
69221;BME280;56331;51.992;20.910;2022-09-12T04:20:57;99819.79;;;23.38;43.23
69221;BME280;56331;51.992;20.910;2022-09-12T04:23:23;99820.97;;;23.37;43.28
69221;BME280;56331;51.992;20.910;2022-09-12T04:25:57;99817.84;;;23.39;43.30
69221;BME280;56331;51.992;20.910;2022-09-12T04:28:25;99825.34;;;23.38;43.38
69221;BME280;56331;51.992;20.910;2022-09-12T04:30:54;99825.94;;;23.37;43.38
69221;BME280;56331;51.992;20.910;2022-09-12T04:33:21;99828.51;;;23.36;43.45
69221;BME280;56331;51.992;20.910;2022-09-12T04:35:47;99830.11;;;23.37;43.46
69221;BME280;56331;51.992;20.910;2022-09-12T04:38:14;99833.27;;;23.36;43.55
69221;BME280;56331;51.992;20.910;2022-09-12T04:40:40;99832.89;;;23.37;43.56
69221;BME280;56331;51.992;20.910;2022-09-12T04:43:07;99833.48;;;23.37;43.58
69221;BME280;56331;51.992;20.910;2022-09-12T04:45:34;99844.59;;;23.37;43.58
69221;BME280;56331;51.992;20.910;2022-09-12T04:48:01;99848.77;;;23.37;43.64
69221;BME280;56331;51.992;20.910;2022-09-12T04:50:28;99848.77;;;23.37;43.70
69221;BME280;56331;51.992;20.910;2022-09-12T04:52:55;99847.17;;;23.36;43.74
69221;BME280;56331;51.992;20.910;2022-09-12T04:55:22;99855.72;;;23.37;43.77
69221;BME280;56331;51.992;20.910;2022-09-12T04:57:50;99851.55;;;23.37;43.80
69221;BME280;56331;51.992;20.910;2022-09-12T05:00:18;99852.94;;;23.37;43.80
69221;BME280;56331;51.992;20.910;2022-09-12T05:02:45;99841.81;;;23.37;43.87
69221;BME280;56331;51.992;20.910;2022-09-12T05:05:11;99838.23;;;23.36;43.87
69221;BME280;56331;51.992;20.910;2022-09-12T05:07:38;99837.65;;;23.37;43.87
69221;BME280;56331;51.992;20.910;2022-09-12T05:10:06;99842.76;;;23.35;43.96
69221;BME280;56331;51.992;20.910;2022-09-12T05:12:32;99841.61;;;23.36;44.01
69221;BME280;56331;51.992;20.910;2022-09-12T05:14:59;99843.80;;;23.36;43.98
69221;BME280;56331;51.992;20.910;2022-09-12T05:17:28;99843.00;;;23.36;44.00
69221;BME280;56331;51.992;20.910;2022-09-12T05:19:54;99847.73;;;23.35;44.06
69221;BME280;56331;51.992;20.910;2022-09-12T05:22:21;99842.76;;;23.35;44.07
69221;BME280;56331;51.992;20.910;2022-09-12T05:24:47;99849.70;;;23.35;44.11
69221;BME280;56331;51.992;20.910;2022-09-12T05:27:14;99854.47;;;23.34;44.13
69221;BME280;56331;51.992;20.910;2022-09-12T05:29:40;99856.06;;;23.35;44.16
69221;BME280;56331;51.992;20.910;2022-09-12T05:32:08;99862.80;;;23.34;44.17
69221;BME280;56331;51.992;20.910;2022-09-12T05:34:35;99857.45;;;23.35;44.17
69221;BME280;56331;51.992;20.910;2022-09-12T05:37:03;99863.61;;;23.35;44.18
69221;BME280;56331;51.992;20.910;2022-09-12T05:39:29;99863.61;;;23.35;44.39
69221;BME280;56331;51.992;20.910;2022-09-12T05:41:56;99869.16;;;23.35;44.49
69221;BME280;56331;51.992;20.910;2022-09-12T05:44:23;99868.57;;;23.35;44.65
69221;BME280;56331;51.992;20.910;2022-09-12T05:46:51;99867.42;;;23.36;44.84
69221;BME280;56331;51.992;20.910;2022-09-12T05:49:18;99872.19;;;23.36;44.99
69221;BME280;56331;51.992;20.910;2022-09-12T05:51:46;99871.59;;;23.36;45.15
69221;BME280;56331;51.992;20.910;2022-09-12T05:54:15;99872.73;;;23.35;45.35
69221;BME280;56331;51.992;20.910;2022-09-12T05:56:44;99881.91;;;23.36;45.49
69221;BME280;56331;51.992;20.910;2022-09-12T05:59:17;99873.33;;;23.35;45.76
69221;BME280;56331;51.992;20.910;2022-09-12T06:01:44;99878.89;;;23.35;46.11
69221;BME280;56331;51.992;20.910;2022-09-12T06:04:12;99883.06;;;23.35;46.22
69221;BME280;56331;51.992;20.910;2022-09-12T06:06:42;99873.13;;;23.34;45.93
69221;BME280;56331;51.992;20.910;2022-09-12T06:09:15;99882.05;;;23.33;45.90
69221;BME280;56331;51.992;20.910;2022-09-12T06:11:43;99874.52;;;23.34;45.91
69221;BME280;56331;51.992;20.910;2022-09-12T06:14:13;99866.77;;;23.33;45.99
69221;BME280;56331;51.992;20.910;2022-09-12T06:16:40;99876.49;;;23.33;45.92
69221;BME280;56331;51.992;20.910;2022-09-12T06:19:19;99875.31;;;23.34;45.88
69221;BME280;56331;51.992;20.910;2022-09-12T06:21:48;99876.70;;;23.34;45.77
69221;BME280;56331;51.992;20.910;2022-09-12T06:24:16;99879.27;;;23.33;45.78
69221;BME280;56331;51.992;20.910;2022-09-12T06:26:43;99878.68;;;23.34;45.70
69221;BME280;56331;51.992;20.910;2022-09-12T06:29:11;99882.85;;;23.34;45.63
69221;BME280;56331;51.992;20.910;2022-09-12T06:31:39;99882.05;;;23.33;45.50
69221;BME280;56331;51.992;20.910;2022-09-12T06:34:11;99883.44;;;23.33;45.44
69221;BME280;56331;51.992;20.910;2022-09-12T06:36:40;99882.85;;;23.34;45.51
69221;BME280;56331;51.992;20.910;2022-09-12T06:39:09;99881.01;;;23.32;45.64
69221;BME280;56331;51.992;20.910;2022-09-12T06:41:36;99882.05;;;23.33;45.76
69221;BME280;56331;51.992;20.910;2022-09-12T06:44:04;99885.39;;;23.33;45.73
69221;BME280;56331;51.992;20.910;2022-09-12T06:46:33;99884.00;;;23.33;45.70
69221;BME280;56331;51.992;20.910;2022-09-12T06:48:59;99883.20;;;23.32;45.67
69221;BME280;56331;51.992;20.910;2022-09-12T06:51:27;99884.00;;;23.33;45.67
69221;BME280;56331;51.992;20.910;2022-09-12T06:53:55;99887.61;;;23.33;45.58
69221;BME280;56331;51.992;20.910;2022-09-12T06:56:26;99879.83;;;23.33;45.50
69221;BME280;56331;51.992;20.910;2022-09-12T06:58:55;99885.39;;;23.33;45.37
69221;BME280;56331;51.992;20.910;2022-09-12T07:01:25;99882.85;;;23.34;45.38
69221;BME280;56331;51.992;20.910;2022-09-12T07:03:55;99888.41;;;23.34;45.44
69221;BME280;56331;51.992;20.910;2022-09-12T07:06:25;99887.02;;;23.34;45.38
69221;BME280;56331;51.992;20.910;2022-09-12T07:08:56;99893.73;;;23.33;45.25
69221;BME280;56331;51.992;20.910;2022-09-12T07:11:26;99893.17;;;23.33;45.26
69221;BME280;56331;51.992;20.910;2022-09-12T07:13:55;99891.78;;;23.33;45.26
69221;BME280;56331;51.992;20.910;2022-09-12T07:16:22;99895.70;;;23.32;45.33
69221;BME280;56331;51.992;20.910;2022-09-12T07:18:54;99897.89;;;23.33;45.38
69221;BME280;56331;51.992;20.910;2022-09-12T07:21:21;99898.94;;;23.34;45.66
69221;BME280;56331;51.992;20.910;2022-09-12T07:23:48;99900.33;;;23.34;45.88
69221;BME280;56331;51.992;20.910;2022-09-12T07:26:17;99908.87;;;23.35;46.00
69221;BME280;56331;51.992;20.910;2022-09-12T07:28:44;99910.27;;;23.35;46.24
69221;BME280;56331;51.992;20.910;2022-09-12T07:33:41;99920.69;;;23.39;46.19
69221;BME280;56331;51.992;20.910;2022-09-12T07:36:10;99920.69;;;23.39;46.19
69221;BME280;56331;51.992;20.910;2022-09-12T07:38:38;99923.67;;;23.40;46.02
69221;BME280;56331;51.992;20.910;2022-09-12T07:41:18;99930.03;;;23.40;46.08
69221;BME280;56331;51.992;20.910;2022-09-12T07:43:45;99933.61;;;23.41;45.98
69221;BME280;56331;51.992;20.910;2022-09-12T07:46:13;99933.05;;;23.41;45.87
69221;BME280;56331;51.992;20.910;2022-09-12T07:48:40;99938.02;;;23.42;45.88
69221;BME280;56331;51.992;20.910;2022-09-12T07:51:09;99939.41;;;23.42;45.85
69221;BME280;56331;51.992;20.910;2022-09-12T07:53:47;99941.33;;;23.47;45.84
69221;BME280;56331;51.992;20.910;2022-09-12T07:56:18;99942.99;;;23.42;45.83
69221;BME280;56331;51.992;20.910;2022-09-12T07:58:45;99942.64;;;23.44;45.58
69221;BME280;56331;51.992;20.910;2022-09-12T08:01:17;99946.44;;;23.45;45.43
69221;BME280;56331;51.992;20.910;2022-09-12T08:03:46;99943.45;;;23.44;45.32
69221;BME280;56331;51.992;20.910;2022-09-12T08:06:17;99947.83;;;23.45;45.19
69221;BME280;56331;51.992;20.910;2022-09-12T08:08:49;99950.02;;;23.46;45.07
69221;BME280;56331;51.992;20.910;2022-09-12T08:11:18;99950.02;;;23.46;45.36
69221;BME280;56331;51.992;20.910;2022-09-12T08:13:49;99952.20;;;23.46;45.44
69221;BME280;56331;51.992;20.910;2022-09-12T08:16:24;99954.98;;;23.46;45.61
69221;BME280;56331;51.992;20.910;2022-09-12T08:19:08;99954.98;;;23.46;45.85
69221;BME280;56331;51.992;20.910;2022-09-12T08:21:35;99956.62;;;23.47;45.87
69221;BME280;56331;51.992;20.910;2022-09-12T08:24:03;99955.23;;;23.47;45.87
69221;BME280;56331;51.992;20.910;2022-09-12T08:26:33;99949.66;;;23.47;46.16
69221;BME280;56331;51.992;20.910;2022-09-12T08:29:00;99953.25;;;23.48;46.36
69221;BME280;56331;51.992;20.910;2022-09-12T08:31:27;99948.48;;;23.48;46.50
69221;BME280;56331;51.992;20.910;2022-09-12T08:33:55;99954.28;;;23.49;46.60
69221;BME280;56331;51.992;20.910;2022-09-12T08:36:27;99952.30;;;23.50;46.78
69221;BME280;56331;51.992;20.910;2022-09-12T08:38:59;99954.50;;;23.50;46.85
69221;BME280;56331;51.992;20.910;2022-09-12T08:41:45;99959.70;;;23.52;46.96
69221;BME280;56331;51.992;20.910;2022-09-12T08:52:33;99960.58;;;23.56;47.17
69221;BME280;56331;51.992;20.910;2022-09-12T08:54:59;99958.59;;;23.56;47.29
69221;BME280;56331;51.992;20.910;2022-09-12T08:57:28;99958.04;;;23.57;47.25
69221;BME280;56331;51.992;20.910;2022-09-12T08:59:55;99963.02;;;23.57;47.28
69221;BME280;56331;51.992;20.910;2022-09-12T09:02:28;99970.41;;;23.59;47.40
69221;BME280;56331;51.992;20.910;2022-09-12T09:10:36;99968.75;;;23.65;47.42
69221;BME280;56331;51.992;20.910;2022-09-12T09:15:59;99964.99;;;23.67;47.19
69221;BME280;56331;51.992;20.910;2022-09-12T09:18:30;99961.52;;;23.70;47.08
69221;BME280;56331;51.992;20.910;2022-09-12T09:23:41;99967.17;;;23.73;46.82
69221;BME280;56331;51.992;20.910;2022-09-12T09:26:21;99969.36;;;23.74;46.74
69221;BME280;56331;51.992;20.910;2022-09-12T09:29:05;99970.92;;;23.81;46.67
69221;BME280;56331;51.992;20.910;2022-09-12T09:31:36;99973.39;;;23.76;46.84
69221;BME280;56331;51.992;20.910;2022-09-12T09:34:08;99972.59;;;23.76;46.87
69221;BME280;56331;51.992;20.910;2022-09-12T09:36:51;99968.88;;;23.78;46.88
69221;BME280;56331;51.992;20.910;2022-09-12T09:44:45;99980.28;;;23.83;46.47
69221;BME280;56331;51.992;20.910;2022-09-12T09:47:14;99978.89;;;23.83;46.42
69221;BME280;56331;51.992;20.910;2022-09-12T09:49:43;99981.11;;;23.83;46.35
69221;BME280;56331;51.992;20.910;2022-09-12T09:52:15;99981.11;;;23.83;46.33
69221;BME280;56331;51.992;20.910;2022-09-12T09:57:38;99983.95;;;23.87;46.14
69221;BME280;56331;51.992;20.910;2022-09-12T10:00:26;99989.17;;;23.88;45.85
69221;BME280;56331;51.992;20.910;2022-09-12T10:05:48;99989.03;;;23.91;45.34
69221;BME280;56331;51.992;20.910;2022-09-12T10:11:19;99995.11;;;23.96;44.98
69221;BME280;56331;51.992;20.910;2022-09-12T10:13:58;99999.19;;;23.93;44.90
69221;BME280;56331;51.992;20.910;2022-09-12T10:16:28;100001.17;;;23.92;44.74
69221;BME280;56331;51.992;20.910;2022-09-12T10:18:56;100003.36;;;23.93;44.66
69221;BME280;56331;51.992;20.910;2022-09-12T10:26:41;100005.13;;;23.91;44.64
69221;BME280;56331;51.992;20.910;2022-09-12T10:29:15;100010.70;;;23.91;44.72
69221;BME280;56331;51.992;20.910;2022-09-12T10:31:51;100014.06;;;23.91;44.80
69221;BME280;56331;51.992;20.910;2022-09-12T10:37:08;100015.08;;;23.92;44.90
69221;BME280;56331;51.992;20.910;2022-09-12T10:39:37;100014.87;;;23.91;45.05
69221;BME280;56331;51.992;20.910;2022-09-12T10:42:04;100019.25;;;23.92;45.20
69221;BME280;56331;51.992;20.910;2022-09-12T10:44:33;100016.47;;;23.92;45.30
69221;BME280;56331;51.992;20.910;2022-09-12T10:49:46;100023.42;;;23.92;45.66
69221;BME280;56331;51.992;20.910;2022-09-12T10:52:21;100024.22;;;23.93;45.76
69221;BME280;56331;51.992;20.910;2022-09-12T10:54:49;100026.66;;;23.94;45.87
69221;BME280;56331;51.992;20.910;2022-09-12T11:00:14;100027.63;;;24.02;45.80
69221;BME280;56331;51.992;20.910;2022-09-12T11:05:34;100033.12;;;23.98;45.41
69221;BME280;56331;51.992;20.910;2022-09-12T11:29:47;100030.75;;;24.00;46.13
69221;BME280;56331;51.992;20.910;2022-09-12T11:40:54;100026.09;;;24.05;46.42
69221;BME280;56331;51.992;20.910;2022-09-12T11:43:32;100026.09;;;24.05;46.36
69221;BME280;56331;51.992;20.910;2022-09-12T11:46:04;100029.67;;;24.05;46.31
69221;BME280;56331;51.992;20.910;2022-09-12T11:48:43;100027.69;;;24.06;46.33
69221;BME280;56331;51.992;20.910;2022-09-12T11:53:43;100029.53;;;24.08;46.13
69221;BME280;56331;51.992;20.910;2022-09-12T11:56:18;100032.52;;;24.09;45.96
69221;BME280;56331;51.992;20.910;2022-09-12T11:58:50;100033.92;;;24.09;45.81
69221;BME280;56331;51.992;20.910;2022-09-12T12:04:07;100034.67;;;24.15;45.58
69221;BME280;56331;51.992;20.910;2022-09-12T12:09:05;100038.33;;;24.10;45.26
69221;BME280;56331;51.992;20.910;2022-09-12T12:11:41;100039.72;;;24.10;45.30
69221;BME280;56331;51.992;20.910;2022-09-12T12:17:01;100037.73;;;24.10;45.58
69221;BME280;56331;51.992;20.910;2022-09-12T12:24:31;100038.33;;;24.10;45.76
69221;BME280;56331;51.992;20.910;2022-09-12T12:27:01;100044.70;;;24.10;45.66
69221;BME280;56331;51.992;20.910;2022-09-12T12:29:39;100044.11;;;24.11;45.47
69221;BME280;56331;51.992;20.910;2022-09-12T12:34:40;100046.67;;;24.10;45.47
69221;BME280;56331;51.992;20.910;2022-09-12T12:40:21;100046.98;;;24.14;45.72
69221;BME280;56331;51.992;20.910;2022-09-12T12:48:00;100052.24;;;24.10;45.85
69221;BME280;56331;51.992;20.910;2022-09-12T12:50:29;100051.66;;;24.10;45.82
69221;BME280;56331;51.992;20.910;2022-09-12T12:53:22;100049.31;;;24.12;45.80
69221;BME280;56331;51.992;20.910;2022-09-12T12:55:51;100050.71;;;24.12;45.88
69221;BME280;56331;51.992;20.910;2022-09-12T13:03:29;100049.63;;;24.17;46.09
69221;BME280;56331;51.992;20.910;2022-09-12T13:08:45;100050.94;;;24.23;46.13
69221;BME280;56331;51.992;20.910;2022-09-12T13:11:27;100052.83;;;24.19;46.20
69221;BME280;56331;51.992;20.910;2022-09-12T13:13:55;100052.83;;;24.19;46.25
69221;BME280;56331;51.992;20.910;2022-09-12T13:16:38;100052.62;;;24.18;46.27
69221;BME280;56331;51.992;20.910;2022-09-12T13:19:18;100055.85;;;24.20;46.32
69221;BME280;56331;51.992;20.910;2022-09-12T13:22:01;100059.23;;;24.19;45.94
69221;BME280;56331;51.992;20.910;2022-09-12T13:24:28;100054.81;;;24.18;45.40
69221;BME280;56331;51.992;20.910;2022-09-12T13:26:56;100050.42;;;24.17;45.63
69221;BME280;56331;51.992;20.910;2022-09-12T13:29:26;100048.23;;;24.17;45.56
69221;BME280;56331;51.992;20.910;2022-09-12T13:31:58;100051.23;;;24.18;45.43
69221;BME280;56331;51.992;20.910;2022-09-12T13:39:38;100055.75;;;24.16;45.76
69221;BME280;56331;51.992;20.910;2022-09-12T13:45:17;100052.41;;;24.17;45.97
69221;BME280;56331;51.992;20.910;2022-09-12T13:47:44;100055.41;;;24.18;46.07
69221;BME280;56331;51.992;20.910;2022-09-12T13:50:23;100053.42;;;24.18;46.40
69221;BME280;56331;51.992;20.910;2022-09-12T14:03:38;100057.59;;;24.18;46.01
69221;BME280;56331;51.992;20.910;2022-09-12T14:06:20;100057.84;;;24.19;45.96
69221;BME280;56331;51.992;20.910;2022-09-12T14:08:48;100060.38;;;24.18;45.58
69221;BME280;56331;51.992;20.910;2022-09-12T14:14:23;100056.51;;;24.23;45.58
69221;BME280;56331;51.992;20.910;2022-09-12T14:16:48;100063.75;;;24.18;45.61
69221;BME280;56331;51.992;20.910;2022-09-12T14:19:15;100060.17;;;24.17;45.54
69221;BME280;56331;51.992;20.910;2022-09-12T14:21:45;100056.80;;;24.18;45.39
69221;BME280;56331;51.992;20.910;2022-09-12T14:24:12;100059.78;;;24.19;45.34
69221;BME280;56331;51.992;20.910;2022-09-12T14:26:41;100057.59;;;24.18;45.30
69221;BME280;56331;51.992;20.910;2022-09-12T14:29:11;100057.98;;;24.17;45.23
69221;BME280;56331;51.992;20.910;2022-09-12T14:31:39;100056.59;;;24.17;45.26
69221;BME280;56331;51.992;20.910;2022-09-12T14:34:14;100060.76;;;24.17;45.17
69221;BME280;56331;51.992;20.910;2022-09-12T14:36:44;100056.80;;;24.18;45.09
69221;BME280;56331;51.992;20.910;2022-09-12T14:39:32;100056.59;;;24.17;44.97
69221;BME280;56331;51.992;20.910;2022-09-12T14:42:12;100059.37;;;24.17;44.85
69221;BME280;56331;51.992;20.910;2022-09-12T14:44:50;100062.36;;;24.18;44.73
69221;BME280;56331;51.992;20.910;2022-09-12T14:47:13;100056.34;;;24.16;44.64
69221;BME280;56331;51.992;20.910;2022-09-12T14:49:42;100062.50;;;24.15;44.53
69221;BME280;56331;51.992;20.910;2022-09-12T14:52:30;100057.52;;;24.15;44.48
69221;BME280;56331;51.992;20.910;2022-09-12T14:57:34;100056.28;;;24.12;44.34
69221;BME280;56331;51.992;20.910;2022-09-12T15:00:19;100052.91;;;24.13;44.28
69221;BME280;56331;51.992;20.910;2022-09-12T15:02:47;100054.64;;;24.11;44.24
69221;BME280;56331;51.992;20.910;2022-09-12T15:05:20;100063.38;;;24.10;44.17
69221;BME280;56331;51.992;20.910;2022-09-12T15:08:00;100063.69;;;24.14;44.14
69221;BME280;56331;51.992;20.910;2022-09-12T15:10:36;100065.70;;;24.08;44.10
69221;BME280;56331;51.992;20.910;2022-09-12T15:15:40;100066.05;;;24.06;44.15
69221;BME280;56331;51.992;20.910;2022-09-12T15:18:07;100061.67;;;24.05;44.18
69221;BME280;56331;51.992;20.910;2022-09-12T15:20:38;100061.81;;;24.02;44.17
69221;BME280;56331;51.992;20.910;2022-09-12T15:23:06;100067.59;;;24.03;44.13
69221;BME280;56331;51.992;20.910;2022-09-12T15:25:34;100061.81;;;24.02;44.13
69221;BME280;56331;51.992;20.910;2022-09-12T15:28:14;100064.39;;;24.01;44.10
69221;BME280;56331;51.992;20.910;2022-09-12T15:30:37;100068.56;;;24.01;44.08
69221;BME280;56331;51.992;20.910;2022-09-12T15:33:04;100066.72;;;23.99;44.07
69221;BME280;56331;51.992;20.910;2022-09-12T15:35:32;100070.30;;;24.00;44.05
69221;BME280;56331;51.992;20.910;2022-09-12T15:38:00;100072.28;;;23.99;44.16
69221;BME280;56331;51.992;20.910;2022-09-12T15:40:26;100079.03;;;23.98;44.16
69221;BME280;56331;51.992;20.910;2022-09-12T15:42:53;100070.68;;;23.98;44.19
69221;BME280;56331;51.992;20.910;2022-09-12T15:45:22;100069.05;;;23.97;44.25
69221;BME280;56331;51.992;20.910;2022-09-12T15:47:50;100069.05;;;23.97;44.24
69221;BME280;56331;51.992;20.910;2022-09-12T15:50:16;100070.23;;;23.96;44.32
69221;BME280;56331;51.992;20.910;2022-09-12T15:52:43;100068.59;;;23.95;44.31
69221;BME280;56331;51.992;20.910;2022-09-12T15:57:44;100075.34;;;23.94;44.49
69221;BME280;56331;51.992;20.910;2022-09-12T16:00:12;100073.74;;;23.93;44.64
69221;BME280;56331;51.992;20.910;2022-09-12T16:02:38;100071.52;;;23.93;44.79
69221;BME280;56331;51.992;20.910;2022-09-12T16:05:11;100073.74;;;23.93;44.89
69221;BME280;56331;51.992;20.910;2022-09-12T16:07:35;100073.50;;;23.92;44.97
69221;BME280;56331;51.992;20.910;2022-09-12T16:10:02;100067.94;;;23.92;45.15
69221;BME280;56331;51.992;20.910;2022-09-12T16:12:29;100071.52;;;23.93;45.31
69221;BME280;56331;51.992;20.910;2022-09-12T16:14:55;100072.91;;;23.93;45.44
69221;BME280;56331;51.992;20.910;2022-09-12T16:17:22;100067.94;;;23.92;45.48